sensor_id;sensor_type;location;lat;lon;timestamp;P1;durP1;ratioP1;P2;durP2;ratioP2
6564;SDS011;3316;44.118;27.258;2024-01-15T00:02:07;11.30;;;6.10;;
6564;SDS011;3316;44.118;27.258;2024-01-15T00:04:39;10.87;;;6.20;;
6564;SDS011;3316;44.118;27.258;2024-01-15T00:07:06;7.77;;;5.07;;
6564;SDS011;3316;44.118;27.258;2024-01-15T00:09:32;8.23;;;5.10;;
6564;SDS011;3316;44.118;27.258;2024-01-15T00:11:58;8.53;;;5.40;;
6564;SDS011;3316;44.118;27.258;2024-01-15T00:14:24;10.60;;;6.20;;
6564;SDS011;3316;44.118;27.258;2024-01-15T00:16:49;11.33;;;5.80;;
6564;SDS011;3316;44.118;27.258;2024-01-15T00:19:16;8.90;;;5.53;;
6564;SDS011;3316;44.118;27.258;2024-01-15T00:21:44;11.10;;;6.70;;
6564;SDS011;3316;44.118;27.258;2024-01-15T00:24:10;9.57;;;5.53;;
6564;SDS011;3316;44.118;27.258;2024-01-15T00:26:35;8.20;;;5.23;;
6564;SDS011;3316;44.118;27.258;2024-01-15T00:29:01;7.57;;;4.50;;
6564;SDS011;3316;44.118;27.258;2024-01-15T00:31:28;10.30;;;5.60;;
6564;SDS011;3316;44.118;27.258;2024-01-15T00:33:54;9.33;;;5.60;;
6564;SDS011;3316;44.118;27.258;2024-01-15T00:36:20;10.80;;;5.83;;
6564;SDS011;3316;44.118;27.258;2024-01-15T00:38:46;9.83;;;5.40;;
6564;SDS011;3316;44.118;27.258;2024-01-15T00:41:12;6.70;;;4.50;;
6564;SDS011;3316;44.118;27.258;2024-01-15T00:43:38;11.97;;;5.83;;
6564;SDS011;3316;44.118;27.258;2024-01-15T00:46:03;7.23;;;5.13;;
6564;SDS011;3316;44.118;27.258;2024-01-15T00:48:29;9.93;;;5.60;;
6564;SDS011;3316;44.118;27.258;2024-01-15T00:50:55;9.37;;;5.67;;
6564;SDS011;3316;44.118;27.258;2024-01-15T00:53:20;7.80;;;5.03;;
6564;SDS011;3316;44.118;27.258;2024-01-15T00:55:48;7.57;;;5.07;;
6564;SDS011;3316;44.118;27.258;2024-01-15T00:58:15;12.77;;;5.90;;
6564;SDS011;3316;44.118;27.258;2024-01-15T01:00:41;7.80;;;4.77;;
6564;SDS011;3316;44.118;27.258;2024-01-15T01:03:06;7.40;;;5.07;;
6564;SDS011;3316;44.118;27.258;2024-01-15T01:05:33;7.77;;;4.73;;
6564;SDS011;3316;44.118;27.258;2024-01-15T01:07:59;8.33;;;5.40;;
6564;SDS011;3316;44.118;27.258;2024-01-15T01:10:24;8.63;;;5.00;;
6564;SDS011;3316;44.118;27.258;2024-01-15T01:12:50;8.20;;;5.53;;
6564;SDS011;3316;44.118;27.258;2024-01-15T01:15:15;9.77;;;5.30;;
6564;SDS011;3316;44.118;27.258;2024-01-15T01:17:40;9.43;;;5.10;;
6564;SDS011;3316;44.118;27.258;2024-01-15T01:20:06;9.53;;;5.40;;
6564;SDS011;3316;44.118;27.258;2024-01-15T01:22:34;9.10;;;5.50;;
6564;SDS011;3316;44.118;27.258;2024-01-15T01:24:59;8.23;;;5.60;;
6564;SDS011;3316;44.118;27.258;2024-01-15T01:27:25;9.77;;;5.43;;
6564;SDS011;3316;44.118;27.258;2024-01-15T01:29:50;7.93;;;5.53;;
6564;SDS011;3316;44.118;27.258;2024-01-15T01:32:17;8.60;;;5.03;;
6564;SDS011;3316;44.118;27.258;2024-01-15T01:34:42;9.63;;;4.90;;
6564;SDS011;3316;44.118;27.258;2024-01-15T01:37:08;7.47;;;4.90;;
6564;SDS011;3316;44.118;27.258;2024-01-15T01:39:34;12.07;;;5.43;;
6564;SDS011;3316;44.118;27.258;2024-01-15T01:42:00;9.57;;;5.53;;
6564;SDS011;3316;44.118;27.258;2024-01-15T01:44:26;11.07;;;5.97;;
6564;SDS011;3316;44.118;27.258;2024-01-15T01:46:51;9.57;;;5.20;;
6564;SDS011;3316;44.118;27.258;2024-01-15T01:49:17;7.60;;;4.93;;
6564;SDS011;3316;44.118;27.258;2024-01-15T01:51:43;10.37;;;5.40;;
6564;SDS011;3316;44.118;27.258;2024-01-15T01:54:09;7.00;;;4.80;;
6564;SDS011;3316;44.118;27.258;2024-01-15T01:56:37;7.63;;;5.00;;
6564;SDS011;3316;44.118;27.258;2024-01-15T01:59:03;7.67;;;4.90;;
6564;SDS011;3316;44.118;27.258;2024-01-15T02:01:30;8.17;;;5.10;;
6564;SDS011;3316;44.118;27.258;2024-01-15T02:03:57;9.10;;;4.77;;
6564;SDS011;3316;44.118;27.258;2024-01-15T02:06:23;7.87;;;4.53;;
6564;SDS011;3316;44.118;27.258;2024-01-15T02:08:48;9.27;;;4.50;;
6564;SDS011;3316;44.118;27.258;2024-01-15T02:11:14;7.87;;;5.20;;
6564;SDS011;3316;44.118;27.258;2024-01-15T02:13:40;10.03;;;5.43;;
6564;SDS011;3316;44.118;27.258;2024-01-15T02:16:05;8.93;;;5.27;;
6564;SDS011;3316;44.118;27.258;2024-01-15T02:18:40;9.13;;;5.47;;
6564;SDS011;3316;44.118;27.258;2024-01-15T02:21:07;9.07;;;5.07;;
6564;SDS011;3316;44.118;27.258;2024-01-15T02:23:32;13.30;;;6.73;;
6564;SDS011;3316;44.118;27.258;2024-01-15T02:25:58;10.27;;;6.10;;
6564;SDS011;3316;44.118;27.258;2024-01-15T02:28:23;6.93;;;4.33;;
6564;SDS011;3316;44.118;27.258;2024-01-15T02:30:49;11.77;;;5.67;;
6564;SDS011;3316;44.118;27.258;2024-01-15T02:33:14;14.07;;;6.00;;
6564;SDS011;3316;44.118;27.258;2024-01-15T02:35:40;13.23;;;6.53;;
6564;SDS011;3316;44.118;27.258;2024-01-15T02:38:05;11.97;;;6.87;;
6564;SDS011;3316;44.118;27.258;2024-01-15T02:40:32;13.13;;;6.27;;
6564;SDS011;3316;44.118;27.258;2024-01-15T02:42:57;12.90;;;5.77;;
6564;SDS011;3316;44.118;27.258;2024-01-15T02:45:23;12.50;;;6.77;;
6564;SDS011;3316;44.118;27.258;2024-01-15T02:47:52;13.67;;;6.67;;
6564;SDS011;3316;44.118;27.258;2024-01-15T02:50:17;11.80;;;6.27;;
6564;SDS011;3316;44.118;27.258;2024-01-15T02:52:43;12.47;;;6.07;;
6564;SDS011;3316;44.118;27.258;2024-01-15T02:55:08;9.30;;;5.70;;
6564;SDS011;3316;44.118;27.258;2024-01-15T02:57:34;8.67;;;5.43;;
6564;SDS011;3316;44.118;27.258;2024-01-15T02:59:59;9.40;;;4.50;;
6564;SDS011;3316;44.118;27.258;2024-01-15T03:02:25;7.13;;;4.80;;
6564;SDS011;3316;44.118;27.258;2024-01-15T03:04:50;6.83;;;4.13;;
6564;SDS011;3316;44.118;27.258;2024-01-15T03:07:16;9.07;;;6.50;;
6564;SDS011;3316;44.118;27.258;2024-01-15T03:09:43;8.60;;;5.57;;
6564;SDS011;3316;44.118;27.258;2024-01-15T03:12:09;11.47;;;5.97;;
6564;SDS011;3316;44.118;27.258;2024-01-15T03:14:35;11.17;;;6.10;;
6564;SDS011;3316;44.118;27.258;2024-01-15T03:17:00;11.33;;;5.67;;
6564;SDS011;3316;44.118;27.258;2024-01-15T03:19:26;13.17;;;5.90;;
6564;SDS011;3316;44.118;27.258;2024-01-15T03:21:51;11.47;;;5.87;;
6564;SDS011;3316;44.118;27.258;2024-01-15T03:24:17;10.40;;;6.83;;
6564;SDS011;3316;44.118;27.258;2024-01-15T03:26:42;26.40;;;13.83;;
6564;SDS011;3316;44.118;27.258;2024-01-15T03:29:08;20.47;;;11.67;;
6564;SDS011;3316;44.118;27.258;2024-01-15T03:31:33;17.13;;;8.77;;
6564;SDS011;3316;44.118;27.258;2024-01-15T03:33:58;13.57;;;7.67;;
6564;SDS011;3316;44.118;27.258;2024-01-15T03:36:24;12.43;;;7.37;;
6564;SDS011;3316;44.118;27.258;2024-01-15T03:38:49;15.20;;;10.23;;
6564;SDS011;3316;44.118;27.258;2024-01-15T03:41:15;11.67;;;7.90;;
6564;SDS011;3316;44.118;27.258;2024-01-15T03:43:42;17.33;;;9.83;;
6564;SDS011;3316;44.118;27.258;2024-01-15T03:46:07;12.43;;;7.83;;
6564;SDS011;3316;44.118;27.258;2024-01-15T03:48:33;19.30;;;11.17;;
6564;SDS011;3316;44.118;27.258;2024-01-15T03:50:58;17.20;;;9.37;;
6564;SDS011;3316;44.118;27.258;2024-01-15T03:53:23;19.20;;;11.53;;
6564;SDS011;3316;44.118;27.258;2024-01-15T03:55:49;16.60;;;9.60;;
6564;SDS011;3316;44.118;27.258;2024-01-15T03:58:15;17.80;;;10.77;;
6564;SDS011;3316;44.118;27.258;2024-01-15T04:00:41;25.27;;;12.70;;
6564;SDS011;3316;44.118;27.258;2024-01-15T04:03:06;24.73;;;14.00;;
6564;SDS011;3316;44.118;27.258;2024-01-15T04:05:32;22.77;;;12.30;;
6564;SDS011;3316;44.118;27.258;2024-01-15T04:07:57;31.47;;;14.13;;
6564;SDS011;3316;44.118;27.258;2024-01-15T04:10:23;28.47;;;13.23;;
6564;SDS011;3316;44.118;27.258;2024-01-15T04:12:48;22.33;;;12.00;;
6564;SDS011;3316;44.118;27.258;2024-01-15T04:15:13;15.83;;;9.67;;
6564;SDS011;3316;44.118;27.258;2024-01-15T04:17:39;13.77;;;7.13;;
6564;SDS011;3316;44.118;27.258;2024-01-15T04:20:04;14.10;;;8.60;;
6564;SDS011;3316;44.118;27.258;2024-01-15T04:22:31;19.07;;;11.60;;
6564;SDS011;3316;44.118;27.258;2024-01-15T04:24:57;17.30;;;10.50;;
6564;SDS011;3316;44.118;27.258;2024-01-15T04:27:22;23.97;;;12.90;;
6564;SDS011;3316;44.118;27.258;2024-01-15T04:29:48;26.37;;;14.73;;
6564;SDS011;3316;44.118;27.258;2024-01-15T04:32:13;27.43;;;13.90;;
6564;SDS011;3316;44.118;27.258;2024-01-15T04:34:39;31.43;;;14.30;;
6564;SDS011;3316;44.118;27.258;2024-01-15T04:37:04;25.47;;;13.97;;
6564;SDS011;3316;44.118;27.258;2024-01-15T04:39:29;24.03;;;11.80;;
6564;SDS011;3316;44.118;27.258;2024-01-15T04:41:55;16.53;;;8.13;;
6564;SDS011;3316;44.118;27.258;2024-01-15T04:44:20;12.57;;;5.70;;
6564;SDS011;3316;44.118;27.258;2024-01-15T04:46:46;11.70;;;6.30;;
6564;SDS011;3316;44.118;27.258;2024-01-15T04:49:11;14.90;;;8.47;;
6564;SDS011;3316;44.118;27.258;2024-01-15T04:51:37;10.37;;;6.03;;
6564;SDS011;3316;44.118;27.258;2024-01-15T04:54:02;13.63;;;7.57;;
6564;SDS011;3316;44.118;27.258;2024-01-15T04:56:28;16.17;;;8.93;;
6564;SDS011;3316;44.118;27.258;2024-01-15T04:58:54;15.23;;;8.90;;
6564;SDS011;3316;44.118;27.258;2024-01-15T05:01:19;12.60;;;6.63;;
6564;SDS011;3316;44.118;27.258;2024-01-15T05:03:44;13.83;;;6.73;;
6564;SDS011;3316;44.118;27.258;2024-01-15T05:06:10;6.40;;;4.73;;
6564;SDS011;3316;44.118;27.258;2024-01-15T05:08:35;9.30;;;5.40;;
6564;SDS011;3316;44.118;27.258;2024-01-15T05:11:01;12.80;;;6.73;;
6564;SDS011;3316;44.118;27.258;2024-01-15T05:13:27;18.93;;;5.73;;
6564;SDS011;3316;44.118;27.258;2024-01-15T05:15:53;7.80;;;5.43;;
6564;SDS011;3316;44.118;27.258;2024-01-15T05:18:18;13.00;;;6.60;;
6564;SDS011;3316;44.118;27.258;2024-01-15T05:20:44;14.67;;;7.57;;
6564;SDS011;3316;44.118;27.258;2024-01-15T05:23:09;15.53;;;7.90;;
6564;SDS011;3316;44.118;27.258;2024-01-15T05:25:35;9.47;;;5.50;;
6564;SDS011;3316;44.118;27.258;2024-01-15T05:28:00;9.27;;;5.63;;
6564;SDS011;3316;44.118;27.258;2024-01-15T05:30:26;12.10;;;7.73;;
6564;SDS011;3316;44.118;27.258;2024-01-15T05:32:51;14.93;;;8.03;;
6564;SDS011;3316;44.118;27.258;2024-01-15T05:35:17;17.23;;;7.00;;
6564;SDS011;3316;44.118;27.258;2024-01-15T05:37:43;16.93;;;9.37;;
6564;SDS011;3316;44.118;27.258;2024-01-15T05:40:10;21.07;;;10.70;;
6564;SDS011;3316;44.118;27.258;2024-01-15T05:42:37;22.97;;;11.07;;
6564;SDS011;3316;44.118;27.258;2024-01-15T05:45:03;26.90;;;12.93;;
6564;SDS011;3316;44.118;27.258;2024-01-15T05:47:29;25.10;;;13.40;;
6564;SDS011;3316;44.118;27.258;2024-01-15T05:49:55;14.33;;;8.67;;
6564;SDS011;3316;44.118;27.258;2024-01-15T05:52:21;22.03;;;11.60;;
6564;SDS011;3316;44.118;27.258;2024-01-15T05:54:47;27.00;;;13.67;;
6564;SDS011;3316;44.118;27.258;2024-01-15T05:57:12;31.07;;;14.47;;
6564;SDS011;3316;44.118;27.258;2024-01-15T05:59:38;43.77;;;17.73;;
6564;SDS011;3316;44.118;27.258;2024-01-15T06:02:05;32.40;;;15.63;;
6564;SDS011;3316;44.118;27.258;2024-01-15T06:04:30;42.70;;;17.03;;
6564;SDS011;3316;44.118;27.258;2024-01-15T06:06:56;40.57;;;14.13;;
6564;SDS011;3316;44.118;27.258;2024-01-15T06:09:21;29.03;;;12.47;;
6564;SDS011;3316;44.118;27.258;2024-01-15T06:11:47;30.40;;;14.97;;
6564;SDS011;3316;44.118;27.258;2024-01-15T06:14:13;40.47;;;18.73;;
6564;SDS011;3316;44.118;27.258;2024-01-15T06:16:38;53.92;;;22.73;;
6564;SDS011;3316;44.118;27.258;2024-01-15T06:19:03;57.00;;;23.00;;
6564;SDS011;3316;44.118;27.258;2024-01-15T06:21:29;34.53;;;17.67;;
6564;SDS011;3316;44.118;27.258;2024-01-15T06:23:54;34.67;;;16.20;;
6564;SDS011;3316;44.118;27.258;2024-01-15T06:26:21;32.40;;;16.47;;
6564;SDS011;3316;44.118;27.258;2024-01-15T06:28:47;34.90;;;17.07;;
6564;SDS011;3316;44.118;27.258;2024-01-15T06:31:13;26.20;;;13.40;;
6564;SDS011;3316;44.118;27.258;2024-01-15T06:33:38;33.77;;;15.23;;
6564;SDS011;3316;44.118;27.258;2024-01-15T06:36:04;28.37;;;12.50;;
6564;SDS011;3316;44.118;27.258;2024-01-15T06:38:31;24.73;;;12.20;;
6564;SDS011;3316;44.118;27.258;2024-01-15T06:40:57;21.87;;;11.67;;
6564;SDS011;3316;44.118;27.258;2024-01-15T06:43:23;21.53;;;12.23;;
6564;SDS011;3316;44.118;27.258;2024-01-15T06:45:48;30.13;;;14.37;;
6564;SDS011;3316;44.118;27.258;2024-01-15T06:48:14;33.40;;;15.53;;
6564;SDS011;3316;44.118;27.258;2024-01-15T06:50:44;47.30;;;21.10;;
6564;SDS011;3316;44.118;27.258;2024-01-15T06:53:10;39.27;;;19.30;;
6564;SDS011;3316;44.118;27.258;2024-01-15T06:55:36;42.17;;;21.43;;
6564;SDS011;3316;44.118;27.258;2024-01-15T06:58:01;38.70;;;21.07;;
6564;SDS011;3316;44.118;27.258;2024-01-15T07:00:27;33.73;;;18.67;;
6564;SDS011;3316;44.118;27.258;2024-01-15T07:02:53;28.30;;;14.77;;
6564;SDS011;3316;44.118;27.258;2024-01-15T07:05:20;23.07;;;13.30;;
6564;SDS011;3316;44.118;27.258;2024-01-15T07:07:45;19.43;;;11.23;;
6564;SDS011;3316;44.118;27.258;2024-01-15T07:10:11;38.03;;;21.37;;
6564;SDS011;3316;44.118;27.258;2024-01-15T07:12:36;36.87;;;21.10;;
6564;SDS011;3316;44.118;27.258;2024-01-15T07:15:02;21.53;;;12.40;;
6564;SDS011;3316;44.118;27.258;2024-01-15T07:17:29;31.10;;;16.47;;
6564;SDS011;3316;44.118;27.258;2024-01-15T07:19:55;31.00;;;14.63;;
6564;SDS011;3316;44.118;27.258;2024-01-15T07:22:20;29.23;;;14.80;;
6564;SDS011;3316;44.118;27.258;2024-01-15T07:24:45;27.13;;;15.60;;
6564;SDS011;3316;44.118;27.258;2024-01-15T07:27:11;17.80;;;10.20;;
6564;SDS011;3316;44.118;27.258;2024-01-15T07:29:36;18.60;;;11.30;;
6564;SDS011;3316;44.118;27.258;2024-01-15T07:32:03;18.77;;;11.00;;
6564;SDS011;3316;44.118;27.258;2024-01-15T07:34:29;18.50;;;10.53;;
6564;SDS011;3316;44.118;27.258;2024-01-15T07:36:56;21.40;;;11.23;;
6564;SDS011;3316;44.118;27.258;2024-01-15T07:39:22;18.83;;;11.47;;
6564;SDS011;3316;44.118;27.258;2024-01-15T07:41:49;20.60;;;10.60;;
6564;SDS011;3316;44.118;27.258;2024-01-15T07:44:15;16.50;;;10.53;;
6564;SDS011;3316;44.118;27.258;2024-01-15T07:46:44;17.77;;;8.53;;
6564;SDS011;3316;44.118;27.258;2024-01-15T07:49:10;28.73;;;15.90;;
6564;SDS011;3316;44.118;27.258;2024-01-15T07:51:36;17.40;;;9.33;;
6564;SDS011;3316;44.118;27.258;2024-01-15T07:54:01;30.37;;;16.53;;
6564;SDS011;3316;44.118;27.258;2024-01-15T07:56:27;32.23;;;15.77;;
6564;SDS011;3316;44.118;27.258;2024-01-15T07:58:53;25.73;;;13.50;;
6564;SDS011;3316;44.118;27.258;2024-01-15T08:01:18;23.23;;;12.23;;
6564;SDS011;3316;44.118;27.258;2024-01-15T08:03:44;26.90;;;15.00;;
6564;SDS011;3316;44.118;27.258;2024-01-15T08:06:09;25.73;;;14.67;;
6564;SDS011;3316;44.118;27.258;2024-01-15T08:08:35;26.97;;;12.73;;
6564;SDS011;3316;44.118;27.258;2024-01-15T08:11:01;23.47;;;10.20;;
6564;SDS011;3316;44.118;27.258;2024-01-15T08:13:27;22.90;;;13.80;;
6564;SDS011;3316;44.118;27.258;2024-01-15T08:15:53;21.77;;;13.70;;
6564;SDS011;3316;44.118;27.258;2024-01-15T08:18:18;27.75;;;13.70;;
6564;SDS011;3316;44.118;27.258;2024-01-15T08:20:43;48.78;;;25.33;;
6564;SDS011;3316;44.118;27.258;2024-01-15T08:23:09;34.40;;;13.85;;
6564;SDS011;3316;44.118;27.258;2024-01-15T08:25:34;36.33;;;19.80;;
6564;SDS011;3316;44.118;27.258;2024-01-15T08:28:00;15.13;;;9.20;;
6564;SDS011;3316;44.118;27.258;2024-01-15T08:30:25;30.15;;;14.95;;
6564;SDS011;3316;44.118;27.258;2024-01-15T08:32:55;132.98;;;74.22;;
6564;SDS011;3316;44.118;27.258;2024-01-15T08:35:22;115.25;;;64.55;;
6564;SDS011;3316;44.118;27.258;2024-01-15T08:37:51;147.30;;;46.60;;
6564;SDS011;3316;44.118;27.258;2024-01-15T08:40:18;170.38;;;109.47;;
6564;SDS011;3316;44.118;27.258;2024-01-15T08:42:43;40.80;;;24.65;;
6564;SDS011;3316;44.118;27.258;2024-01-15T08:45:10;55.67;;;27.50;;
6564;SDS011;3316;44.118;27.258;2024-01-15T08:47:36;40.67;;;16.42;;
6564;SDS011;3316;44.118;27.258;2024-01-15T08:50:01;19.08;;;11.00;;
6564;SDS011;3316;44.118;27.258;2024-01-15T08:52:28;23.70;;;16.30;;
6564;SDS011;3316;44.118;27.258;2024-01-15T08:54:55;15.73;;;10.27;;
6564;SDS011;3316;44.118;27.258;2024-01-15T08:57:21;36.17;;;18.42;;
6564;SDS011;3316;44.118;27.258;2024-01-15T08:59:47;89.53;;;50.83;;
6564;SDS011;3316;44.118;27.258;2024-01-15T09:02:13;15.63;;;11.23;;
6564;SDS011;3316;44.118;27.258;2024-01-15T09:04:39;52.08;;;33.55;;
6564;SDS011;3316;44.118;27.258;2024-01-15T09:07:04;14.40;;;8.82;;
6564;SDS011;3316;44.118;27.258;2024-01-15T09:09:30;8.93;;;6.07;;
6564;SDS011;3316;44.118;27.258;2024-01-15T09:11:55;10.93;;;6.40;;
6564;SDS011;3316;44.118;27.258;2024-01-15T09:14:21;20.38;;;9.43;;
6564;SDS011;3316;44.118;27.258;2024-01-15T09:16:47;15.05;;;8.65;;
6564;SDS011;3316;44.118;27.258;2024-01-15T09:19:13;14.82;;;9.05;;
6564;SDS011;3316;44.118;27.258;2024-01-15T09:21:38;23.70;;;12.57;;
6564;SDS011;3316;44.118;27.258;2024-01-15T09:24:04;19.75;;;12.13;;
6564;SDS011;3316;44.118;27.258;2024-01-15T09:26:30;22.70;;;12.05;;
6564;SDS011;3316;44.118;27.258;2024-01-15T09:28:55;21.90;;;8.75;;
6564;SDS011;3316;44.118;27.258;2024-01-15T09:31:22;22.98;;;14.00;;
6564;SDS011;3316;44.118;27.258;2024-01-15T09:33:48;14.30;;;8.82;;
6564;SDS011;3316;44.118;27.258;2024-01-15T09:36:14;12.32;;;8.57;;
6564;SDS011;3316;44.118;27.258;2024-01-15T09:38:40;10.65;;;6.88;;
6564;SDS011;3316;44.118;27.258;2024-01-15T09:41:06;22.40;;;14.02;;
6564;SDS011;3316;44.118;27.258;2024-01-15T09:43:32;14.05;;;9.55;;
6564;SDS011;3316;44.118;27.258;2024-01-15T09:45:58;26.88;;;13.70;;
6564;SDS011;3316;44.118;27.258;2024-01-15T09:48:24;23.30;;;11.77;;
6564;SDS011;3316;44.118;27.258;2024-01-15T09:50:50;14.73;;;8.38;;
6564;SDS011;3316;44.118;27.258;2024-01-15T09:53:15;20.58;;;11.57;;
6564;SDS011;3316;44.118;27.258;2024-01-15T09:55:43;17.15;;;9.65;;
6564;SDS011;3316;44.118;27.258;2024-01-15T09:58:08;18.42;;;11.80;;
6564;SDS011;3316;44.118;27.258;2024-01-15T10:00:35;7.72;;;5.15;;
6564;SDS011;3316;44.118;27.258;2024-01-15T10:03:04;12.53;;;6.60;;
6564;SDS011;3316;44.118;27.258;2024-01-15T10:05:30;10.20;;;5.27;;
6564;SDS011;3316;44.118;27.258;2024-01-15T10:07:56;7.20;;;5.50;;
6564;SDS011;3316;44.118;27.258;2024-01-15T10:10:23;8.33;;;3.63;;
6564;SDS011;3316;44.118;27.258;2024-01-15T10:12:49;17.80;;;7.33;;
6564;SDS011;3316;44.118;27.258;2024-01-15T10:15:15;7.93;;;5.00;;
6564;SDS011;3316;44.118;27.258;2024-01-15T10:17:41;8.57;;;5.43;;
6564;SDS011;3316;44.118;27.258;2024-01-15T10:20:10;26.17;;;9.67;;
6564;SDS011;3316;44.118;27.258;2024-01-15T10:22:39;7.50;;;4.40;;
6564;SDS011;3316;44.118;27.258;2024-01-15T10:25:06;4.33;;;3.00;;
6564;SDS011;3316;44.118;27.258;2024-01-15T10:27:35;7.60;;;4.37;;
6564;SDS011;3316;44.118;27.258;2024-01-15T10:30:00;5.23;;;3.60;;
6564;SDS011;3316;44.118;27.258;2024-01-15T10:32:27;6.00;;;3.50;;
6564;SDS011;3316;44.118;27.258;2024-01-15T10:34:54;5.67;;;3.50;;
6564;SDS011;3316;44.118;27.258;2024-01-15T10:37:20;11.20;;;5.77;;
6564;SDS011;3316;44.118;27.258;2024-01-15T10:39:46;8.77;;;4.83;;
6564;SDS011;3316;44.118;27.258;2024-01-15T10:42:12;9.90;;;5.50;;
6564;SDS011;3316;44.118;27.258;2024-01-15T10:44:37;14.13;;;7.37;;
6564;SDS011;3316;44.118;27.258;2024-01-15T10:47:03;11.30;;;5.47;;
6564;SDS011;3316;44.118;27.258;2024-01-15T10:49:29;9.73;;;6.30;;
6564;SDS011;3316;44.118;27.258;2024-01-15T10:51:55;9.87;;;5.97;;
6564;SDS011;3316;44.118;27.258;2024-01-15T10:54:22;7.30;;;4.67;;
6564;SDS011;3316;44.118;27.258;2024-01-15T10:56:50;22.63;;;10.77;;
6564;SDS011;3316;44.118;27.258;2024-01-15T10:59:18;21.03;;;8.93;;
6564;SDS011;3316;44.118;27.258;2024-01-15T11:01:45;22.63;;;9.23;;
6564;SDS011;3316;44.118;27.258;2024-01-15T11:04:11;13.67;;;8.00;;
6564;SDS011;3316;44.118;27.258;2024-01-15T11:06:44;16.03;;;8.10;;
6564;SDS011;3316;44.118;27.258;2024-01-15T11:09:11;5.93;;;3.87;;
6564;SDS011;3316;44.118;27.258;2024-01-15T11:11:40;11.77;;;6.73;;
6564;SDS011;3316;44.118;27.258;2024-01-15T11:14:08;12.10;;;6.27;;
6564;SDS011;3316;44.118;27.258;2024-01-15T11:16:53;20.43;;;11.23;;
6564;SDS011;3316;44.118;27.258;2024-01-15T11:19:21;14.70;;;7.77;;
6564;SDS011;3316;44.118;27.258;2024-01-15T11:21:47;12.23;;;7.73;;
6564;SDS011;3316;44.118;27.258;2024-01-15T11:24:12;9.07;;;5.30;;
6564;SDS011;3316;44.118;27.258;2024-01-15T11:27:04;8.83;;;4.93;;
6564;SDS011;3316;44.118;27.258;2024-01-15T11:29:34;15.03;;;7.80;;
6564;SDS011;3316;44.118;27.258;2024-01-15T11:37:21;9.03;;;5.77;;
6564;SDS011;3316;44.118;27.258;2024-01-15T11:39:49;8.80;;;5.27;;
6564;SDS011;3316;44.118;27.258;2024-01-15T11:42:17;8.03;;;5.87;;
6564;SDS011;3316;44.118;27.258;2024-01-15T11:44:43;11.93;;;6.80;;
6564;SDS011;3316;44.118;27.258;2024-01-15T11:47:10;9.37;;;5.00;;
6564;SDS011;3316;44.118;27.258;2024-01-15T11:49:54;8.63;;;4.70;;
6564;SDS011;3316;44.118;27.258;2024-01-15T11:52:27;11.20;;;5.53;;
6564;SDS011;3316;44.118;27.258;2024-01-15T11:57:50;13.53;;;8.20;;
6564;SDS011;3316;44.118;27.258;2024-01-15T12:00:17;9.53;;;4.43;;
6564;SDS011;3316;44.118;27.258;2024-01-15T12:02:43;11.40;;;6.23;;
6564;SDS011;3316;44.118;27.258;2024-01-15T12:05:10;11.83;;;7.13;;
6564;SDS011;3316;44.118;27.258;2024-01-15T12:07:38;8.37;;;4.33;;
6564;SDS011;3316;44.118;27.258;2024-01-15T12:10:07;12.83;;;6.70;;
6564;SDS011;3316;44.118;27.258;2024-01-15T12:15:21;12.60;;;6.33;;
6564;SDS011;3316;44.118;27.258;2024-01-15T12:17:47;19.67;;;9.60;;
6564;SDS011;3316;44.118;27.258;2024-01-15T12:20:13;13.03;;;7.27;;
6564;SDS011;3316;44.118;27.258;2024-01-15T12:22:38;10.90;;;6.53;;
6564;SDS011;3316;44.118;27.258;2024-01-15T12:25:04;9.90;;;5.53;;
6564;SDS011;3316;44.118;27.258;2024-01-15T12:27:30;13.20;;;4.60;;
6564;SDS011;3316;44.118;27.258;2024-01-15T12:29:57;13.13;;;4.27;;
6564;SDS011;3316;44.118;27.258;2024-01-15T12:32:24;6.93;;;3.87;;
6564;SDS011;3316;44.118;27.258;2024-01-15T12:34:50;8.23;;;5.47;;
6564;SDS011;3316;44.118;27.258;2024-01-15T12:37:18;11.03;;;5.83;;
6564;SDS011;3316;44.118;27.258;2024-01-15T12:39:44;9.60;;;4.13;;
6564;SDS011;3316;44.118;27.258;2024-01-15T12:42:10;8.20;;;3.97;;
6564;SDS011;3316;44.118;27.258;2024-01-15T12:44:35;7.90;;;5.23;;
6564;SDS011;3316;44.118;27.258;2024-01-15T12:47:03;8.70;;;5.57;;
6564;SDS011;3316;44.118;27.258;2024-01-15T12:49:29;19.90;;;10.00;;
6564;SDS011;3316;44.118;27.258;2024-01-15T12:51:57;11.87;;;6.73;;
6564;SDS011;3316;44.118;27.258;2024-01-15T12:54:24;26.00;;;10.77;;
6564;SDS011;3316;44.118;27.258;2024-01-15T12:56:50;13.53;;;8.77;;
6564;SDS011;3316;44.118;27.258;2024-01-15T12:59:16;45.23;;;16.77;;
6564;SDS011;3316;44.118;27.258;2024-01-15T13:01:42;22.93;;;11.10;;
6564;SDS011;3316;44.118;27.258;2024-01-15T13:04:09;14.33;;;6.30;;
6564;SDS011;3316;44.118;27.258;2024-01-15T13:06:35;12.10;;;6.20;;
6564;SDS011;3316;44.118;27.258;2024-01-15T13:09:00;17.47;;;8.13;;
6564;SDS011;3316;44.118;27.258;2024-01-15T13:11:26;14.83;;;7.97;;
6564;SDS011;3316;44.118;27.258;2024-01-15T13:13:52;12.70;;;8.20;;
6564;SDS011;3316;44.118;27.258;2024-01-15T13:16:18;20.23;;;9.87;;
6564;SDS011;3316;44.118;27.258;2024-01-15T13:18:45;10.90;;;6.40;;
6564;SDS011;3316;44.118;27.258;2024-01-15T13:21:11;11.73;;;6.70;;
6564;SDS011;3316;44.118;27.258;2024-01-15T13:23:37;14.00;;;7.07;;
6564;SDS011;3316;44.118;27.258;2024-01-15T13:26:03;18.10;;;8.40;;
6564;SDS011;3316;44.118;27.258;2024-01-15T13:28:30;15.67;;;8.30;;
6564;SDS011;3316;44.118;27.258;2024-01-15T13:30:55;14.07;;;8.27;;
6564;SDS011;3316;44.118;27.258;2024-01-15T13:33:21;12.87;;;7.40;;
6564;SDS011;3316;44.118;27.258;2024-01-15T13:35:47;15.80;;;8.93;;
6564;SDS011;3316;44.118;27.258;2024-01-15T13:38:14;24.27;;;11.67;;
6564;SDS011;3316;44.118;27.258;2024-01-15T13:40:40;18.20;;;9.07;;
6564;SDS011;3316;44.118;27.258;2024-01-15T13:43:06;17.07;;;7.57;;
6564;SDS011;3316;44.118;27.258;2024-01-15T13:45:33;16.77;;;8.50;;
6564;SDS011;3316;44.118;27.258;2024-01-15T13:47:59;18.57;;;10.60;;
6564;SDS011;3316;44.118;27.258;2024-01-15T13:50:25;18.87;;;10.13;;
6564;SDS011;3316;44.118;27.258;2024-01-15T13:52:50;15.97;;;9.30;;
6564;SDS011;3316;44.118;27.258;2024-01-15T13:55:15;16.63;;;10.57;;
6564;SDS011;3316;44.118;27.258;2024-01-15T13:57:41;22.30;;;13.37;;
6564;SDS011;3316;44.118;27.258;2024-01-15T14:00:07;27.20;;;14.87;;
6564;SDS011;3316;44.118;27.258;2024-01-15T14:02:36;20.63;;;10.00;;
6564;SDS011;3316;44.118;27.258;2024-01-15T14:05:02;14.13;;;8.03;;
6564;SDS011;3316;44.118;27.258;2024-01-15T14:07:27;16.30;;;9.47;;
6564;SDS011;3316;44.118;27.258;2024-01-15T14:09:53;19.50;;;9.43;;
6564;SDS011;3316;44.118;27.258;2024-01-15T14:12:18;15.23;;;7.53;;
6564;SDS011;3316;44.118;27.258;2024-01-15T14:14:44;12.93;;;6.87;;
6564;SDS011;3316;44.118;27.258;2024-01-15T14:17:09;11.30;;;7.57;;
6564;SDS011;3316;44.118;27.258;2024-01-15T14:19:35;17.37;;;9.67;;
6564;SDS011;3316;44.118;27.258;2024-01-15T14:22:00;21.77;;;11.13;;
6564;SDS011;3316;44.118;27.258;2024-01-15T14:24:26;16.07;;;9.60;;
6564;SDS011;3316;44.118;27.258;2024-01-15T14:26:51;25.87;;;12.20;;
6564;SDS011;3316;44.118;27.258;2024-01-15T14:29:17;22.43;;;11.10;;
6564;SDS011;3316;44.118;27.258;2024-01-15T14:31:45;30.40;;;15.63;;
6564;SDS011;3316;44.118;27.258;2024-01-15T14:34:11;40.00;;;19.73;;
6564;SDS011;3316;44.118;27.258;2024-01-15T14:36:37;46.47;;;24.20;;
6564;SDS011;3316;44.118;27.258;2024-01-15T14:39:02;35.87;;;18.77;;
6564;SDS011;3316;44.118;27.258;2024-01-15T14:41:28;42.30;;;20.63;;
6564;SDS011;3316;44.118;27.258;2024-01-15T14:43:53;40.37;;;18.17;;
6564;SDS011;3316;44.118;27.258;2024-01-15T14:46:19;34.93;;;18.37;;
6564;SDS011;3316;44.118;27.258;2024-01-15T14:48:46;36.43;;;16.63;;
6564;SDS011;3316;44.118;27.258;2024-01-15T14:51:11;30.40;;;15.60;;